METAR Data
IDs: Format: Raw Decoded Include TAF

Data at: 1626 UTC 03 Dec 2021

YMIA 031600Z AUTO 20009KT 9999 // NCD 17/05 Q1018